sensor_id;sensor_type;location;lat;lon;timestamp;P1;durP1;ratioP1;P2;durP2;ratioP2
61356;SDS011;47227;46.752;23.576;2022-10-16T00:00:39;14.00;;;8.10;;
61356;SDS011;47227;46.752;23.576;2022-10-16T00:03:27;12.40;;;7.90;;
61356;SDS011;47227;46.752;23.576;2022-10-16T00:05:58;19.30;;;8.90;;
61356;SDS011;47227;46.752;23.576;2022-10-16T00:08:26;14.20;;;8.90;;
61356;SDS011;47227;46.752;23.576;2022-10-16T00:10:58;12.20;;;8.40;;
61356;SDS011;47227;46.752;23.576;2022-10-16T00:13:25;13.10;;;9.30;;
61356;SDS011;47227;46.752;23.576;2022-10-16T00:15:54;14.90;;;9.50;;
61356;SDS011;47227;46.752;23.576;2022-10-16T00:18:23;15.00;;;9.70;;
61356;SDS011;47227;46.752;23.576;2022-10-16T00:20:50;14.50;;;8.80;;
61356;SDS011;47227;46.752;23.576;2022-10-16T00:23:17;12.60;;;8.90;;
61356;SDS011;47227;46.752;23.576;2022-10-16T00:25:44;16.20;;;9.50;;
61356;SDS011;47227;46.752;23.576;2022-10-16T00:28:11;15.20;;;9.80;;
61356;SDS011;47227;46.752;23.576;2022-10-16T00:30:37;19.20;;;9.10;;
61356;SDS011;47227;46.752;23.576;2022-10-16T00:33:04;15.40;;;9.60;;
61356;SDS011;47227;46.752;23.576;2022-10-16T00:35:31;14.10;;;9.20;;
61356;SDS011;47227;46.752;23.576;2022-10-16T00:37:57;18.60;;;10.70;;
61356;SDS011;47227;46.752;23.576;2022-10-16T00:40:23;21.80;;;10.80;;
61356;SDS011;47227;46.752;23.576;2022-10-16T00:42:50;20.50;;;11.40;;
61356;SDS011;47227;46.752;23.576;2022-10-16T00:45:16;17.50;;;9.80;;
61356;SDS011;47227;46.752;23.576;2022-10-16T00:47:43;17.80;;;10.40;;
61356;SDS011;47227;46.752;23.576;2022-10-16T00:50:24;17.90;;;10.40;;
61356;SDS011;47227;46.752;23.576;2022-10-16T00:52:56;13.30;;;8.10;;
61356;SDS011;47227;46.752;23.576;2022-10-16T00:55:24;13.00;;;7.80;;
61356;SDS011;47227;46.752;23.576;2022-10-16T00:57:51;13.40;;;7.70;;
61356;SDS011;47227;46.752;23.576;2022-10-16T01:00:20;13.90;;;7.80;;
61356;SDS011;47227;46.752;23.576;2022-10-16T01:02:53;18.40;;;7.20;;
61356;SDS011;47227;46.752;23.576;2022-10-16T01:05:22;12.50;;;7.10;;
61356;SDS011;47227;46.752;23.576;2022-10-16T01:07:56;11.30;;;6.60;;
61356;SDS011;47227;46.752;23.576;2022-10-16T01:10:35;14.80;;;6.90;;
61356;SDS011;47227;46.752;23.576;2022-10-16T01:13:10;10.40;;;6.60;;
61356;SDS011;47227;46.752;23.576;2022-10-16T01:15:51;11.60;;;6.60;;
61356;SDS011;47227;46.752;23.576;2022-10-16T01:21:13;7.80;;;6.50;;
61356;SDS011;47227;46.752;23.576;2022-10-16T01:23:51;10.50;;;7.00;;
61356;SDS011;47227;46.752;23.576;2022-10-16T01:29:32;11.10;;;7.90;;
61356;SDS011;47227;46.752;23.576;2022-10-16T01:32:10;18.30;;;7.70;;
61356;SDS011;47227;46.752;23.576;2022-10-16T01:34:45;11.50;;;8.40;;
61356;SDS011;47227;46.752;23.576;2022-10-16T01:37:18;11.60;;;8.00;;
61356;SDS011;47227;46.752;23.576;2022-10-16T01:39:54;12.00;;;8.90;;
61356;SDS011;47227;46.752;23.576;2022-10-16T01:42:26;14.80;;;8.10;;
61356;SDS011;47227;46.752;23.576;2022-10-16T01:44:58;12.50;;;8.70;;
61356;SDS011;47227;46.752;23.576;2022-10-16T01:47:26;12.50;;;8.70;;
61356;SDS011;47227;46.752;23.576;2022-10-16T01:49:56;13.90;;;8.60;;
61356;SDS011;47227;46.752;23.576;2022-10-16T01:52:25;17.10;;;9.40;;
61356;SDS011;47227;46.752;23.576;2022-10-16T01:54:54;13.80;;;8.30;;
61356;SDS011;47227;46.752;23.576;2022-10-16T01:57:23;15.20;;;9.20;;
61356;SDS011;47227;46.752;23.576;2022-10-16T01:59:52;14.10;;;8.80;;
61356;SDS011;47227;46.752;23.576;2022-10-16T02:02:22;16.00;;;9.50;;
61356;SDS011;47227;46.752;23.576;2022-10-16T02:04:58;14.70;;;7.80;;
61356;SDS011;47227;46.752;23.576;2022-10-16T02:07:35;12.90;;;7.80;;
61356;SDS011;47227;46.752;23.576;2022-10-16T02:10:02;9.60;;;7.10;;
61356;SDS011;47227;46.752;23.576;2022-10-16T02:12:30;11.80;;;8.10;;
61356;SDS011;47227;46.752;23.576;2022-10-16T02:14:59;11.00;;;7.60;;
61356;SDS011;47227;46.752;23.576;2022-10-16T02:17:25;10.80;;;7.80;;
61356;SDS011;47227;46.752;23.576;2022-10-16T02:19:53;11.70;;;7.30;;
61356;SDS011;47227;46.752;23.576;2022-10-16T02:22:24;9.70;;;6.30;;
61356;SDS011;47227;46.752;23.576;2022-10-16T02:25:03;11.70;;;6.10;;
61356;SDS011;47227;46.752;23.576;2022-10-16T02:30:20;11.80;;;7.40;;
61356;SDS011;47227;46.752;23.576;2022-10-16T02:32:53;9.10;;;6.60;;
61356;SDS011;47227;46.752;23.576;2022-10-16T02:35:22;10.20;;;6.70;;
61356;SDS011;47227;46.752;23.576;2022-10-16T02:37:50;12.80;;;7.80;;
61356;SDS011;47227;46.752;23.576;2022-10-16T02:40:18;13.30;;;7.10;;
61356;SDS011;47227;46.752;23.576;2022-10-16T02:42:52;10.40;;;7.40;;
61356;SDS011;47227;46.752;23.576;2022-10-16T02:45:20;10.80;;;6.90;;
61356;SDS011;47227;46.752;23.576;2022-10-16T02:47:47;8.50;;;7.30;;
61356;SDS011;47227;46.752;23.576;2022-10-16T02:50:14;11.50;;;6.70;;
61356;SDS011;47227;46.752;23.576;2022-10-16T02:52:41;16.90;;;7.80;;
61356;SDS011;47227;46.752;23.576;2022-10-16T02:55:07;12.50;;;8.60;;
61356;SDS011;47227;46.752;23.576;2022-10-16T02:57:34;14.90;;;9.00;;
61356;SDS011;47227;46.752;23.576;2022-10-16T03:00:04;13.90;;;8.30;;
61356;SDS011;47227;46.752;23.576;2022-10-16T03:02:31;13.90;;;8.60;;
61356;SDS011;47227;46.752;23.576;2022-10-16T03:04:57;12.50;;;8.40;;
61356;SDS011;47227;46.752;23.576;2022-10-16T03:07:24;13.80;;;8.80;;
61356;SDS011;47227;46.752;23.576;2022-10-16T03:09:50;14.90;;;8.70;;
61356;SDS011;47227;46.752;23.576;2022-10-16T03:12:16;14.10;;;9.30;;
61356;SDS011;47227;46.752;23.576;2022-10-16T03:14:43;17.20;;;10.00;;
61356;SDS011;47227;46.752;23.576;2022-10-16T03:17:09;13.90;;;9.60;;
61356;SDS011;47227;46.752;23.576;2022-10-16T03:19:36;16.90;;;9.60;;
61356;SDS011;47227;46.752;23.576;2022-10-16T03:22:02;16.70;;;9.50;;
61356;SDS011;47227;46.752;23.576;2022-10-16T03:24:28;17.60;;;9.60;;
61356;SDS011;47227;46.752;23.576;2022-10-16T03:26:54;15.10;;;9.10;;
61356;SDS011;47227;46.752;23.576;2022-10-16T03:29:21;15.40;;;9.50;;
61356;SDS011;47227;46.752;23.576;2022-10-16T03:31:47;14.90;;;9.60;;
61356;SDS011;47227;46.752;23.576;2022-10-16T03:34:15;15.80;;;9.80;;
61356;SDS011;47227;46.752;23.576;2022-10-16T03:36:41;17.70;;;10.20;;
61356;SDS011;47227;46.752;23.576;2022-10-16T03:39:08;22.50;;;10.30;;
61356;SDS011;47227;46.752;23.576;2022-10-16T03:41:34;14.40;;;8.60;;
61356;SDS011;47227;46.752;23.576;2022-10-16T03:46:27;17.10;;;9.00;;
61356;SDS011;47227;46.752;23.576;2022-10-16T03:48:53;15.00;;;7.80;;
61356;SDS011;47227;46.752;23.576;2022-10-16T03:51:20;12.90;;;7.50;;
61356;SDS011;47227;46.752;23.576;2022-10-16T03:53:46;11.40;;;7.80;;
61356;SDS011;47227;46.752;23.576;2022-10-16T03:56:13;33.00;;;10.00;;
61356;SDS011;47227;46.752;23.576;2022-10-16T03:58:39;58.20;;;12.60;;
61356;SDS011;47227;46.752;23.576;2022-10-16T04:01:06;94.90;;;8.80;;
61356;SDS011;47227;46.752;23.576;2022-10-16T04:03:32;9.50;;;7.50;;
61356;SDS011;47227;46.752;23.576;2022-10-16T04:05:58;17.00;;;7.60;;
61356;SDS011;47227;46.752;23.576;2022-10-16T04:10:51;14.50;;;9.20;;
61356;SDS011;47227;46.752;23.576;2022-10-16T04:13:17;11.00;;;8.00;;
61356;SDS011;47227;46.752;23.576;2022-10-16T04:15:44;13.60;;;7.90;;
61356;SDS011;47227;46.752;23.576;2022-10-16T04:18:11;8.90;;;7.20;;
61356;SDS011;47227;46.752;23.576;2022-10-16T04:20:38;12.30;;;7.90;;
61356;SDS011;47227;46.752;23.576;2022-10-16T04:23:04;12.50;;;9.20;;
61356;SDS011;47227;46.752;23.576;2022-10-16T04:25:30;16.40;;;8.30;;
61356;SDS011;47227;46.752;23.576;2022-10-16T04:27:57;13.60;;;9.50;;
61356;SDS011;47227;46.752;23.576;2022-10-16T04:30:23;14.60;;;9.10;;
61356;SDS011;47227;46.752;23.576;2022-10-16T04:32:50;12.70;;;7.60;;
61356;SDS011;47227;46.752;23.576;2022-10-16T04:35:18;11.20;;;8.40;;
61356;SDS011;47227;46.752;23.576;2022-10-16T04:37:45;12.20;;;8.00;;
61356;SDS011;47227;46.752;23.576;2022-10-16T04:40:12;16.80;;;9.70;;
61356;SDS011;47227;46.752;23.576;2022-10-16T04:42:39;13.90;;;9.30;;
61356;SDS011;47227;46.752;23.576;2022-10-16T04:45:05;14.20;;;8.80;;
61356;SDS011;47227;46.752;23.576;2022-10-16T04:47:36;17.40;;;8.90;;
61356;SDS011;47227;46.752;23.576;2022-10-16T04:50:03;11.20;;;8.70;;
61356;SDS011;47227;46.752;23.576;2022-10-16T04:52:29;11.80;;;6.90;;
61356;SDS011;47227;46.752;23.576;2022-10-16T04:54:57;8.50;;;6.40;;
61356;SDS011;47227;46.752;23.576;2022-10-16T04:57:29;7.20;;;6.00;;
61356;SDS011;47227;46.752;23.576;2022-10-16T04:59:55;7.40;;;6.10;;
61356;SDS011;47227;46.752;23.576;2022-10-16T05:02:23;11.50;;;6.60;;
61356;SDS011;47227;46.752;23.576;2022-10-16T05:04:49;11.40;;;6.80;;
61356;SDS011;47227;46.752;23.576;2022-10-16T05:07:16;10.70;;;6.00;;
61356;SDS011;47227;46.752;23.576;2022-10-16T05:09:42;13.90;;;7.50;;
61356;SDS011;47227;46.752;23.576;2022-10-16T05:12:08;9.60;;;6.80;;
61356;SDS011;47227;46.752;23.576;2022-10-16T05:14:35;9.80;;;6.30;;
61356;SDS011;47227;46.752;23.576;2022-10-16T05:17:01;10.80;;;5.60;;
61356;SDS011;47227;46.752;23.576;2022-10-16T05:19:27;12.40;;;8.00;;
61356;SDS011;47227;46.752;23.576;2022-10-16T05:21:55;9.80;;;8.20;;
61356;SDS011;47227;46.752;23.576;2022-10-16T05:24:21;17.90;;;8.80;;
61356;SDS011;47227;46.752;23.576;2022-10-16T05:26:47;16.70;;;9.30;;
61356;SDS011;47227;46.752;23.576;2022-10-16T05:31:40;20.10;;;9.00;;
61356;SDS011;47227;46.752;23.576;2022-10-16T05:34:06;15.50;;;9.10;;
61356;SDS011;47227;46.752;23.576;2022-10-16T05:36:32;16.40;;;9.20;;
61356;SDS011;47227;46.752;23.576;2022-10-16T05:38:58;12.30;;;9.30;;
61356;SDS011;47227;46.752;23.576;2022-10-16T05:41:25;11.50;;;9.00;;
61356;SDS011;47227;46.752;23.576;2022-10-16T05:43:52;12.30;;;9.20;;
61356;SDS011;47227;46.752;23.576;2022-10-16T05:46:19;12.40;;;9.30;;
61356;SDS011;47227;46.752;23.576;2022-10-16T05:48:45;15.50;;;9.60;;
61356;SDS011;47227;46.752;23.576;2022-10-16T05:51:12;15.30;;;9.30;;
61356;SDS011;47227;46.752;23.576;2022-10-16T05:53:40;16.10;;;9.20;;
61356;SDS011;47227;46.752;23.576;2022-10-16T05:56:08;11.30;;;8.60;;
61356;SDS011;47227;46.752;23.576;2022-10-16T05:58:36;12.60;;;8.90;;
61356;SDS011;47227;46.752;23.576;2022-10-16T06:01:07;15.90;;;9.70;;
61356;SDS011;47227;46.752;23.576;2022-10-16T06:03:38;15.70;;;9.20;;
61356;SDS011;47227;46.752;23.576;2022-10-16T06:06:09;13.90;;;8.90;;
61356;SDS011;47227;46.752;23.576;2022-10-16T06:08:38;13.10;;;8.60;;
61356;SDS011;47227;46.752;23.576;2022-10-16T06:11:06;16.80;;;8.90;;
61356;SDS011;47227;46.752;23.576;2022-10-16T06:13:34;17.10;;;9.60;;
61356;SDS011;47227;46.752;23.576;2022-10-16T06:16:01;16.90;;;8.40;;
61356;SDS011;47227;46.752;23.576;2022-10-16T06:18:29;11.00;;;8.20;;
61356;SDS011;47227;46.752;23.576;2022-10-16T06:20:56;11.60;;;8.00;;
61356;SDS011;47227;46.752;23.576;2022-10-16T06:23:23;15.90;;;9.00;;
61356;SDS011;47227;46.752;23.576;2022-10-16T06:25:49;14.50;;;9.50;;
61356;SDS011;47227;46.752;23.576;2022-10-16T06:30:42;15.50;;;9.40;;
61356;SDS011;47227;46.752;23.576;2022-10-16T06:33:10;18.20;;;11.40;;
61356;SDS011;47227;46.752;23.576;2022-10-16T06:35:37;13.20;;;8.60;;
61356;SDS011;47227;46.752;23.576;2022-10-16T06:38:04;13.70;;;7.90;;
61356;SDS011;47227;46.752;23.576;2022-10-16T06:40:31;13.10;;;7.60;;
61356;SDS011;47227;46.752;23.576;2022-10-16T06:42:57;13.00;;;9.80;;
61356;SDS011;47227;46.752;23.576;2022-10-16T06:45:24;17.90;;;11.70;;
61356;SDS011;47227;46.752;23.576;2022-10-16T06:47:50;17.20;;;11.80;;
61356;SDS011;47227;46.752;23.576;2022-10-16T06:50:16;16.30;;;12.20;;
61356;SDS011;47227;46.752;23.576;2022-10-16T06:52:43;18.20;;;13.10;;
61356;SDS011;47227;46.752;23.576;2022-10-16T06:55:09;24.10;;;13.30;;
61356;SDS011;47227;46.752;23.576;2022-10-16T06:57:35;22.00;;;14.70;;
61356;SDS011;47227;46.752;23.576;2022-10-16T07:00:02;22.20;;;15.40;;
61356;SDS011;47227;46.752;23.576;2022-10-16T07:02:29;25.60;;;14.60;;
61356;SDS011;47227;46.752;23.576;2022-10-16T07:04:56;24.20;;;14.30;;
61356;SDS011;47227;46.752;23.576;2022-10-16T07:07:23;20.50;;;13.40;;
61356;SDS011;47227;46.752;23.576;2022-10-16T07:09:52;28.30;;;14.30;;
61356;SDS011;47227;46.752;23.576;2022-10-16T07:14:45;24.40;;;14.70;;
61356;SDS011;47227;46.752;23.576;2022-10-16T07:17:11;24.10;;;16.30;;
61356;SDS011;47227;46.752;23.576;2022-10-16T07:19:37;25.30;;;14.90;;
61356;SDS011;47227;46.752;23.576;2022-10-16T07:22:04;23.30;;;14.80;;
61356;SDS011;47227;46.752;23.576;2022-10-16T07:24:31;25.90;;;14.10;;
61356;SDS011;47227;46.752;23.576;2022-10-16T07:26:57;27.50;;;14.50;;
61356;SDS011;47227;46.752;23.576;2022-10-16T07:29:23;22.30;;;14.50;;
61356;SDS011;47227;46.752;23.576;2022-10-16T07:31:50;20.70;;;14.20;;
61356;SDS011;47227;46.752;23.576;2022-10-16T07:34:18;21.60;;;14.60;;
61356;SDS011;47227;46.752;23.576;2022-10-16T07:36:50;22.50;;;15.00;;
61356;SDS011;47227;46.752;23.576;2022-10-16T07:39:20;21.60;;;15.00;;
61356;SDS011;47227;46.752;23.576;2022-10-16T07:41:47;26.50;;;14.80;;
61356;SDS011;47227;46.752;23.576;2022-10-16T07:44:15;20.50;;;14.60;;
61356;SDS011;47227;46.752;23.576;2022-10-16T07:46:41;27.80;;;16.20;;
61356;SDS011;47227;46.752;23.576;2022-10-16T07:49:08;22.90;;;15.50;;
61356;SDS011;47227;46.752;23.576;2022-10-16T07:51:34;25.30;;;17.00;;
61356;SDS011;47227;46.752;23.576;2022-10-16T07:54:01;24.30;;;15.90;;
61356;SDS011;47227;46.752;23.576;2022-10-16T07:56:27;24.50;;;14.60;;
61356;SDS011;47227;46.752;23.576;2022-10-16T07:58:57;24.40;;;15.00;;
61356;SDS011;47227;46.752;23.576;2022-10-16T08:01:23;24.80;;;15.20;;
61356;SDS011;47227;46.752;23.576;2022-10-16T08:03:50;22.70;;;15.70;;
61356;SDS011;47227;46.752;23.576;2022-10-16T08:06:18;19.70;;;13.90;;
61356;SDS011;47227;46.752;23.576;2022-10-16T08:08:52;20.70;;;14.40;;
61356;SDS011;47227;46.752;23.576;2022-10-16T08:11:19;22.70;;;13.80;;
61356;SDS011;47227;46.752;23.576;2022-10-16T08:13:45;19.80;;;13.50;;
61356;SDS011;47227;46.752;23.576;2022-10-16T08:18:40;16.80;;;12.00;;
61356;SDS011;47227;46.752;23.576;2022-10-16T08:23:42;18.70;;;10.60;;
61356;SDS011;47227;46.752;23.576;2022-10-16T08:26:10;13.20;;;9.00;;
61356;SDS011;47227;46.752;23.576;2022-10-16T08:28:37;17.40;;;10.40;;
61356;SDS011;47227;46.752;23.576;2022-10-16T08:31:07;14.30;;;9.20;;
61356;SDS011;47227;46.752;23.576;2022-10-16T08:33:35;15.10;;;9.90;;
61356;SDS011;47227;46.752;23.576;2022-10-16T08:36:02;20.50;;;11.50;;
61356;SDS011;47227;46.752;23.576;2022-10-16T08:38:29;15.60;;;9.50;;
61356;SDS011;47227;46.752;23.576;2022-10-16T08:40:58;11.90;;;8.20;;
61356;SDS011;47227;46.752;23.576;2022-10-16T08:43:43;12.10;;;9.50;;
61356;SDS011;47227;46.752;23.576;2022-10-16T08:46:32;14.00;;;9.10;;
61356;SDS011;47227;46.752;23.576;2022-10-16T08:49:16;16.50;;;9.60;;
61356;SDS011;47227;46.752;23.576;2022-10-16T08:51:43;11.60;;;9.10;;
61356;SDS011;47227;46.752;23.576;2022-10-16T08:54:23;16.60;;;10.70;;
61356;SDS011;47227;46.752;23.576;2022-10-16T08:56:56;16.20;;;10.60;;
61356;SDS011;47227;46.752;23.576;2022-10-16T08:59:26;17.40;;;11.10;;
61356;SDS011;47227;46.752;23.576;2022-10-16T09:01:52;20.60;;;11.50;;
61356;SDS011;47227;46.752;23.576;2022-10-16T09:04:32;20.80;;;13.30;;
61356;SDS011;47227;46.752;23.576;2022-10-16T09:07:24;20.10;;;11.50;;
61356;SDS011;47227;46.752;23.576;2022-10-16T09:10:03;20.00;;;13.70;;
61356;SDS011;47227;46.752;23.576;2022-10-16T09:15:35;22.80;;;14.70;;
61356;SDS011;47227;46.752;23.576;2022-10-16T09:18:18;19.90;;;14.20;;
61356;SDS011;47227;46.752;23.576;2022-10-16T09:21:05;23.50;;;15.20;;
61356;SDS011;47227;46.752;23.576;2022-10-16T09:23:40;21.50;;;15.10;;
61356;SDS011;47227;46.752;23.576;2022-10-16T09:26:09;24.50;;;16.60;;
61356;SDS011;47227;46.752;23.576;2022-10-16T09:28:39;27.60;;;18.00;;
61356;SDS011;47227;46.752;23.576;2022-10-16T09:31:10;31.70;;;19.60;;
61356;SDS011;47227;46.752;23.576;2022-10-16T09:33:41;33.40;;;20.00;;
61356;SDS011;47227;46.752;23.576;2022-10-16T09:36:08;33.90;;;19.10;;
61356;SDS011;47227;46.752;23.576;2022-10-16T09:38:37;29.20;;;18.90;;
61356;SDS011;47227;46.752;23.576;2022-10-16T09:43:53;36.20;;;20.30;;
61356;SDS011;47227;46.752;23.576;2022-10-16T09:46:25;35.90;;;20.80;;
61356;SDS011;47227;46.752;23.576;2022-10-16T09:48:59;29.10;;;18.60;;
61356;SDS011;47227;46.752;23.576;2022-10-16T09:51:29;32.70;;;18.60;;
61356;SDS011;47227;46.752;23.576;2022-10-16T09:53:59;30.00;;;17.70;;
61356;SDS011;47227;46.752;23.576;2022-10-16T09:56:29;29.90;;;17.80;;
61356;SDS011;47227;46.752;23.576;2022-10-16T09:59:00;25.10;;;16.10;;
61356;SDS011;47227;46.752;23.576;2022-10-16T10:01:30;26.20;;;16.40;;
61356;SDS011;47227;46.752;23.576;2022-10-16T10:04:03;22.40;;;16.70;;
61356;SDS011;47227;46.752;23.576;2022-10-16T10:06:33;31.60;;;17.20;;
61356;SDS011;47227;46.752;23.576;2022-10-16T10:11:54;23.00;;;16.90;;
61356;SDS011;47227;46.752;23.576;2022-10-16T10:14:27;22.60;;;15.80;;
61356;SDS011;47227;46.752;23.576;2022-10-16T10:17:10;27.50;;;15.70;;
61356;SDS011;47227;46.752;23.576;2022-10-16T10:19:42;28.30;;;15.90;;
61356;SDS011;47227;46.752;23.576;2022-10-16T10:22:17;22.60;;;16.50;;
61356;SDS011;47227;46.752;23.576;2022-10-16T10:25:00;22.40;;;15.60;;
61356;SDS011;47227;46.752;23.576;2022-10-16T10:27:41;23.50;;;15.80;;
61356;SDS011;47227;46.752;23.576;2022-10-16T10:30:25;24.40;;;15.00;;
61356;SDS011;47227;46.752;23.576;2022-10-16T10:33:08;34.30;;;16.00;;
61356;SDS011;47227;46.752;23.576;2022-10-16T10:35:52;22.70;;;16.10;;
61356;SDS011;47227;46.752;23.576;2022-10-16T10:38:33;20.30;;;14.90;;
61356;SDS011;47227;46.752;23.576;2022-10-16T10:46:56;22.90;;;17.00;;
61356;SDS011;47227;46.752;23.576;2022-10-16T10:49:48;24.90;;;17.10;;
61356;SDS011;47227;46.752;23.576;2022-10-16T10:55:14;23.00;;;16.60;;
61356;SDS011;47227;46.752;23.576;2022-10-16T10:58:22;22.00;;;16.30;;
61356;SDS011;47227;46.752;23.576;2022-10-16T11:01:08;19.40;;;15.70;;
61356;SDS011;47227;46.752;23.576;2022-10-16T11:03:45;22.50;;;15.80;;
61356;SDS011;47227;46.752;23.576;2022-10-16T11:06:29;20.10;;;15.80;;
61356;SDS011;47227;46.752;23.576;2022-10-16T11:09:00;23.40;;;17.70;;
61356;SDS011;47227;46.752;23.576;2022-10-16T11:14:09;29.80;;;15.90;;
61356;SDS011;47227;46.752;23.576;2022-10-16T11:16:52;21.00;;;15.80;;
61356;SDS011;47227;46.752;23.576;2022-10-16T11:19:28;27.70;;;16.30;;
61356;SDS011;47227;46.752;23.576;2022-10-16T11:22:06;22.20;;;16.30;;
61356;SDS011;47227;46.752;23.576;2022-10-16T11:24:42;16.10;;;14.40;;
61356;SDS011;47227;46.752;23.576;2022-10-16T11:27:17;17.50;;;14.30;;
61356;SDS011;47227;46.752;23.576;2022-10-16T11:29:52;20.30;;;15.00;;
61356;SDS011;47227;46.752;23.576;2022-10-16T11:32:27;17.70;;;14.90;;
61356;SDS011;47227;46.752;23.576;2022-10-16T11:35:02;18.80;;;14.10;;
61356;SDS011;47227;46.752;23.576;2022-10-16T11:37:41;17.60;;;13.50;;
61356;SDS011;47227;46.752;23.576;2022-10-16T11:40:28;16.70;;;12.20;;
61356;SDS011;47227;46.752;23.576;2022-10-16T11:43:21;15.30;;;13.00;;
61356;SDS011;47227;46.752;23.576;2022-10-16T11:45:53;14.40;;;11.60;;
61356;SDS011;47227;46.752;23.576;2022-10-16T11:48:39;20.60;;;11.20;;
61356;SDS011;47227;46.752;23.576;2022-10-16T11:51:16;12.40;;;11.00;;
61356;SDS011;47227;46.752;23.576;2022-10-16T11:54:14;11.80;;;10.00;;
61356;SDS011;47227;46.752;23.576;2022-10-16T11:56:49;15.00;;;10.70;;
61356;SDS011;47227;46.752;23.576;2022-10-16T11:59:22;13.40;;;9.70;;
61356;SDS011;47227;46.752;23.576;2022-10-16T12:07:47;16.30;;;8.80;;
61356;SDS011;47227;46.752;23.576;2022-10-16T12:10:19;11.80;;;8.20;;
61356;SDS011;47227;46.752;23.576;2022-10-16T12:12:53;11.10;;;7.50;;
61356;SDS011;47227;46.752;23.576;2022-10-16T12:15:27;11.40;;;6.80;;
61356;SDS011;47227;46.752;23.576;2022-10-16T12:18:20;7.30;;;6.60;;
61356;SDS011;47227;46.752;23.576;2022-10-16T12:20:57;11.00;;;6.90;;
61356;SDS011;47227;46.752;23.576;2022-10-16T12:23:30;8.10;;;6.10;;
61356;SDS011;47227;46.752;23.576;2022-10-16T12:25:58;6.70;;;6.00;;
61356;SDS011;47227;46.752;23.576;2022-10-16T12:28:27;7.40;;;6.10;;
61356;SDS011;47227;46.752;23.576;2022-10-16T12:30:56;7.50;;;5.40;;
61356;SDS011;47227;46.752;23.576;2022-10-16T12:33:25;6.70;;;5.20;;
61356;SDS011;47227;46.752;23.576;2022-10-16T12:36:04;6.90;;;5.10;;
61356;SDS011;47227;46.752;23.576;2022-10-16T12:38:45;10.30;;;5.00;;
61356;SDS011;47227;46.752;23.576;2022-10-16T12:41:23;9.60;;;4.80;;
61356;SDS011;47227;46.752;23.576;2022-10-16T12:43:54;5.30;;;4.40;;
61356;SDS011;47227;46.752;23.576;2022-10-16T12:46:23;5.30;;;4.30;;
61356;SDS011;47227;46.752;23.576;2022-10-16T12:52:02;7.20;;;4.30;;
61356;SDS011;47227;46.752;23.576;2022-10-16T12:54:30;5.20;;;4.70;;
61356;SDS011;47227;46.752;23.576;2022-10-16T13:00:11;5.60;;;4.30;;
61356;SDS011;47227;46.752;23.576;2022-10-16T13:02:55;6.20;;;4.10;;
61356;SDS011;47227;46.752;23.576;2022-10-16T13:05:52;11.20;;;4.60;;
61356;SDS011;47227;46.752;23.576;2022-10-16T13:11:27;5.10;;;4.60;;
61356;SDS011;47227;46.752;23.576;2022-10-16T13:20:03;5.50;;;4.10;;
61356;SDS011;47227;46.752;23.576;2022-10-16T13:22:43;4.70;;;4.20;;
61356;SDS011;47227;46.752;23.576;2022-10-16T13:25:27;6.40;;;4.40;;
61356;SDS011;47227;46.752;23.576;2022-10-16T13:28:05;5.80;;;4.20;;
61356;SDS011;47227;46.752;23.576;2022-10-16T13:30:36;5.50;;;4.60;;
61356;SDS011;47227;46.752;23.576;2022-10-16T13:33:13;5.80;;;4.30;;
61356;SDS011;47227;46.752;23.576;2022-10-16T13:35:51;7.00;;;4.60;;
61356;SDS011;47227;46.752;23.576;2022-10-16T13:38:21;8.20;;;4.70;;
61356;SDS011;47227;46.752;23.576;2022-10-16T13:40:52;5.50;;;4.20;;
61356;SDS011;47227;46.752;23.576;2022-10-16T13:43:23;7.20;;;4.00;;
61356;SDS011;47227;46.752;23.576;2022-10-16T13:45:58;5.30;;;4.20;;
61356;SDS011;47227;46.752;23.576;2022-10-16T13:48:27;8.00;;;4.60;;
61356;SDS011;47227;46.752;23.576;2022-10-16T13:53:43;4.80;;;4.30;;
61356;SDS011;47227;46.752;23.576;2022-10-16T13:56:12;6.40;;;3.60;;
61356;SDS011;47227;46.752;23.576;2022-10-16T13:58:41;5.30;;;3.70;;
61356;SDS011;47227;46.752;23.576;2022-10-16T14:01:24;5.40;;;4.40;;
61356;SDS011;47227;46.752;23.576;2022-10-16T14:04:00;5.90;;;4.10;;
61356;SDS011;47227;46.752;23.576;2022-10-16T14:06:31;5.60;;;3.90;;
61356;SDS011;47227;46.752;23.576;2022-10-16T14:09:01;4.30;;;3.90;;
61356;SDS011;47227;46.752;23.576;2022-10-16T14:11:32;8.20;;;3.60;;
61356;SDS011;47227;46.752;23.576;2022-10-16T14:14:05;3.90;;;3.30;;
61356;SDS011;47227;46.752;23.576;2022-10-16T14:16:31;4.40;;;4.00;;
61356;SDS011;47227;46.752;23.576;2022-10-16T14:19:00;4.80;;;3.50;;
61356;SDS011;47227;46.752;23.576;2022-10-16T14:21:29;8.30;;;4.40;;
61356;SDS011;47227;46.752;23.576;2022-10-16T14:23:57;5.40;;;3.60;;
61356;SDS011;47227;46.752;23.576;2022-10-16T14:26:26;5.60;;;4.40;;
61356;SDS011;47227;46.752;23.576;2022-10-16T14:31:39;6.90;;;4.50;;
61356;SDS011;47227;46.752;23.576;2022-10-16T14:36:54;8.10;;;4.30;;
61356;SDS011;47227;46.752;23.576;2022-10-16T14:39:22;4.50;;;4.10;;
61356;SDS011;47227;46.752;23.576;2022-10-16T14:41:52;5.10;;;4.00;;
61356;SDS011;47227;46.752;23.576;2022-10-16T14:44:21;4.40;;;3.90;;
61356;SDS011;47227;46.752;23.576;2022-10-16T14:46:55;6.40;;;3.80;;
61356;SDS011;47227;46.752;23.576;2022-10-16T14:49:22;5.20;;;4.10;;
61356;SDS011;47227;46.752;23.576;2022-10-16T14:51:50;6.50;;;4.20;;
61356;SDS011;47227;46.752;23.576;2022-10-16T14:54:17;4.70;;;4.20;;
61356;SDS011;47227;46.752;23.576;2022-10-16T14:56:47;8.10;;;4.20;;
61356;SDS011;47227;46.752;23.576;2022-10-16T14:59:38;8.40;;;4.00;;
61356;SDS011;47227;46.752;23.576;2022-10-16T15:02:15;5.90;;;4.50;;
61356;SDS011;47227;46.752;23.576;2022-10-16T15:04:49;7.00;;;4.40;;
61356;SDS011;47227;46.752;23.576;2022-10-16T15:07:15;7.90;;;5.00;;
61356;SDS011;47227;46.752;23.576;2022-10-16T15:09:42;8.30;;;6.80;;
61356;SDS011;47227;46.752;23.576;2022-10-16T15:12:15;10.60;;;6.90;;
61356;SDS011;47227;46.752;23.576;2022-10-16T15:14:42;19.00;;;13.40;;
61356;SDS011;47227;46.752;23.576;2022-10-16T15:17:10;22.30;;;13.30;;
61356;SDS011;47227;46.752;23.576;2022-10-16T15:19:36;23.20;;;15.00;;
61356;SDS011;47227;46.752;23.576;2022-10-16T15:22:03;27.80;;;16.70;;
61356;SDS011;47227;46.752;23.576;2022-10-16T15:24:29;25.80;;;14.10;;
61356;SDS011;47227;46.752;23.576;2022-10-16T15:26:56;19.50;;;11.00;;
61356;SDS011;47227;46.752;23.576;2022-10-16T15:29:24;21.30;;;11.00;;
61356;SDS011;47227;46.752;23.576;2022-10-16T15:31:51;15.80;;;10.90;;
61356;SDS011;47227;46.752;23.576;2022-10-16T15:34:17;20.00;;;9.50;;
61356;SDS011;47227;46.752;23.576;2022-10-16T15:36:45;13.70;;;9.60;;
61356;SDS011;47227;46.752;23.576;2022-10-16T15:39:13;17.10;;;9.40;;
61356;SDS011;47227;46.752;23.576;2022-10-16T15:41:41;14.20;;;9.40;;
61356;SDS011;47227;46.752;23.576;2022-10-16T15:44:09;20.80;;;8.70;;
61356;SDS011;47227;46.752;23.576;2022-10-16T15:46:36;19.40;;;9.00;;
61356;SDS011;47227;46.752;23.576;2022-10-16T15:49:04;8.50;;;7.00;;
61356;SDS011;47227;46.752;23.576;2022-10-16T15:51:31;13.20;;;7.10;;
61356;SDS011;47227;46.752;23.576;2022-10-16T15:53:59;9.30;;;6.90;;